createdAt,value
2022-09-30T00:01:35.441Z,7.40
2022-09-30T00:04:04.056Z,7.50
2022-09-30T00:06:33.028Z,7.40
2022-09-30T00:09:02.175Z,7.30
2022-09-30T00:11:32.206Z,7.20
2022-09-30T00:14:01.147Z,7.20
2022-09-30T00:16:31.609Z,7.20
2022-09-30T00:19:00.423Z,7.30
2022-09-30T00:21:28.659Z,7.20
2022-09-30T00:23:56.884Z,7.10
2022-09-30T00:26:24.497Z,7.10
2022-09-30T00:28:58.258Z,7.00
2022-09-30T00:31:32.672Z,7.00
2022-09-30T00:34:07.590Z,7.00
2022-09-30T00:36:51.596Z,7.00
2022-09-30T00:39:21.048Z,7.00
2022-09-30T00:41:52.651Z,7.00
2022-09-30T00:44:51.515Z,7.00
2022-09-30T00:47:36.762Z,6.90
2022-09-30T00:50:13.431Z,7.00
2022-09-30T00:52:42.440Z,7.00
2022-09-30T00:55:34.720Z,6.90
2022-09-30T00:58:05.568Z,6.90
2022-09-30T01:00:34.290Z,6.90
2022-09-30T01:03:03.882Z,6.80
2022-09-30T01:05:33.682Z,6.80
2022-09-30T01:08:03.716Z,6.70
2022-09-30T01:10:31.317Z,6.70
2022-09-30T01:12:59.604Z,6.70
2022-09-30T01:15:45.790Z,6.80
2022-09-30T01:18:29.087Z,6.80
2022-09-30T01:21:19.963Z,6.70
2022-09-30T01:23:54.920Z,6.70
2022-09-30T01:26:25.622Z,6.70
2022-09-30T01:29:18.408Z,6.70
2022-09-30T01:32:09.598Z,6.70
2022-09-30T01:34:43.839Z,6.60
2022-09-30T01:37:23.654Z,6.60
2022-09-30T01:40:06.197Z,6.60
2022-09-30T01:42:36.831Z,6.60
2022-09-30T01:45:17.542Z,6.60
2022-09-30T01:48:00.062Z,6.50
2022-09-30T01:50:43.101Z,6.40
2022-09-30T01:53:33.288Z,6.40
2022-09-30T01:56:13.586Z,6.40
2022-09-30T01:59:10.479Z,6.40
2022-09-30T02:02:01.973Z,6.40
2022-09-30T02:04:41.713Z,6.40
2022-09-30T02:07:18.667Z,6.40
2022-09-30T02:10:06.835Z,6.40
2022-09-30T02:12:41.805Z,6.40
2022-09-30T02:15:14.713Z,6.40
2022-09-30T02:17:48.850Z,6.40
2022-09-30T02:20:29.913Z,6.40
2022-09-30T02:23:04.177Z,6.40
2022-09-30T02:25:39.190Z,6.30
2022-09-30T02:28:12.021Z,6.30
2022-09-30T02:30:45.109Z,6.40
2022-09-30T02:33:30.271Z,6.40
2022-09-30T02:36:05.965Z,6.30
2022-09-30T02:38:41.516Z,6.30
2022-09-30T02:41:21.639Z,6.20
2022-09-30T02:43:50.503Z,6.20
2022-09-30T02:46:40.067Z,6.20
2022-09-30T02:49:24.134Z,6.20
2022-09-30T02:52:12.776Z,6.10
2022-09-30T02:54:59.268Z,6.10
2022-09-30T02:57:42.955Z,6.10
2022-09-30T03:00:13.151Z,6.00
2022-09-30T03:02:41.874Z,6.00
2022-09-30T03:05:11.381Z,6.00
2022-09-30T03:07:40.542Z,6.10
2022-09-30T03:10:16.537Z,6.00
2022-09-30T03:12:44.112Z,6.00
2022-09-30T03:15:30.797Z,6.00
2022-09-30T03:18:16.864Z,6.00
2022-09-30T03:21:05.402Z,6.00
2022-09-30T03:23:51.195Z,5.90
2022-09-30T03:26:46.898Z,5.90
2022-09-30T03:29:20.442Z,5.90
2022-09-30T03:31:47.994Z,5.90
2022-09-30T03:34:15.575Z,5.90
2022-09-30T03:37:13.754Z,5.90
2022-09-30T03:39:53.497Z,5.90
2022-09-30T03:42:23.117Z,5.80
2022-09-30T03:45:06.748Z,5.80
2022-09-30T03:47:38.017Z,5.80
2022-09-30T03:50:09.525Z,5.80
2022-09-30T03:52:37.431Z,5.80
2022-09-30T03:55:08.532Z,5.80
2022-09-30T03:57:36.187Z,5.90
2022-09-30T04:00:05.873Z,5.90
2022-09-30T04:02:33.781Z,5.80
2022-09-30T04:05:01.382Z,5.80
2022-09-30T04:07:28.982Z,5.90
2022-09-30T04:09:56.624Z,5.70
2022-09-30T04:12:24.237Z,5.70
2022-09-30T04:14:52.259Z,5.70
2022-09-30T04:17:19.856Z,5.60
2022-09-30T04:19:47.548Z,5.60
2022-09-30T04:22:15.755Z,5.50
2022-09-30T04:24:43.862Z,5.60
2022-09-30T04:27:11.428Z,5.70
2022-09-30T04:29:38.992Z,5.70
2022-09-30T04:32:06.635Z,5.70
2022-09-30T04:34:34.241Z,5.70
2022-09-30T04:37:01.944Z,5.70
2022-09-30T04:39:29.539Z,5.70
2022-09-30T04:41:57.199Z,5.60
2022-09-30T04:44:24.736Z,5.60
2022-09-30T04:46:52.295Z,5.70
2022-09-30T04:49:20.046Z,5.70
2022-09-30T04:51:48.133Z,5.60
2022-09-30T04:54:16.537Z,5.60
2022-09-30T04:56:44.183Z,5.70
2022-09-30T04:59:11.960Z,5.60
2022-09-30T05:01:40.401Z,5.70
2022-09-30T05:04:08.430Z,5.60
2022-09-30T05:06:36.310Z,5.70
2022-09-30T05:09:03.973Z,5.70
2022-09-30T05:11:31.616Z,5.60
2022-09-30T05:13:59.195Z,5.60
2022-09-30T05:16:27.958Z,5.60
2022-09-30T05:18:55.915Z,5.60
2022-09-30T05:21:23.470Z,5.50
2022-09-30T05:23:53.480Z,5.40
2022-09-30T05:26:21.100Z,5.50
2022-09-30T05:28:48.792Z,5.50
2022-09-30T05:31:17.469Z,5.50
2022-09-30T05:33:47.036Z,5.50
2022-09-30T05:36:20.997Z,5.60
2022-09-30T05:38:52.307Z,5.50
2022-09-30T05:41:24.321Z,5.50
2022-09-30T05:43:52.001Z,5.50
2022-09-30T05:46:20.776Z,5.50
2022-09-30T05:48:48.447Z,5.50
2022-09-30T05:51:17.556Z,5.50
2022-09-30T05:53:47.239Z,5.50
2022-09-30T05:56:14.995Z,5.50
2022-09-30T05:58:42.831Z,5.60
2022-09-30T06:01:14.440Z,5.80
2022-09-30T06:03:45.806Z,5.80
2022-09-30T06:06:19.902Z,5.80
2022-09-30T06:08:50.570Z,5.80
2022-09-30T06:11:22.279Z,5.80
2022-09-30T06:13:50.051Z,5.80
2022-09-30T06:16:19.448Z,5.80
2022-09-30T06:18:50.364Z,5.90
2022-09-30T06:21:18.488Z,5.90
2022-09-30T06:23:52.983Z,6.00
2022-09-30T06:26:23.391Z,6.00
2022-09-30T06:28:51.866Z,6.00
2022-09-30T06:31:19.634Z,6.00
2022-09-30T06:33:47.204Z,6.00
2022-09-30T06:36:15.308Z,6.10
2022-09-30T06:38:42.904Z,6.20
2022-09-30T06:41:10.882Z,6.40
2022-09-30T06:43:49.130Z,6.40
2022-09-30T06:46:30.287Z,6.40
2022-09-30T06:49:13.535Z,6.30
2022-09-30T06:51:42.336Z,6.40
2022-09-30T06:54:10.543Z,6.40
2022-09-30T06:56:38.320Z,6.50
2022-09-30T06:59:06.022Z,6.60
2022-09-30T07:01:33.798Z,6.60
2022-09-30T07:04:08.094Z,6.70
2022-09-30T07:06:41.647Z,6.80
2022-09-30T07:09:14.595Z,6.70
2022-09-30T07:11:45.317Z,7.00
2022-09-30T07:14:13.708Z,7.00
2022-09-30T07:16:45.469Z,7.10
2022-09-30T07:19:13.455Z,7.20
2022-09-30T07:21:43.375Z,7.20
2022-09-30T07:24:11.682Z,7.20
2022-09-30T07:26:40.251Z,7.20
2022-09-30T07:29:08.023Z,7.30
2022-09-30T07:31:36.155Z,7.40
2022-09-30T07:34:11.127Z,7.60
2022-09-30T07:36:41.892Z,7.70
2022-09-30T07:39:11.782Z,7.80
2022-09-30T07:41:40.362Z,8.00
2022-09-30T07:44:12.337Z,8.00
2022-09-30T07:46:41.259Z,8.20
2022-09-30T07:49:14.818Z,8.30
2022-09-30T07:51:46.390Z,8.20
2022-09-30T07:54:17.435Z,8.50
2022-09-30T07:57:08.703Z,8.50
2022-09-30T07:59:37.302Z,8.60
2022-09-30T08:02:11.267Z,8.70
2022-09-30T08:04:43.448Z,8.80
2022-09-30T08:07:13.134Z,8.80
2022-09-30T08:09:41.190Z,8.80
2022-09-30T08:12:09.615Z,8.90
2022-09-30T08:14:37.216Z,9.00
2022-09-30T08:17:04.890Z,9.20
2022-09-30T08:19:38.545Z,9.20
2022-09-30T08:22:07.420Z,9.30
2022-09-30T08:24:35.055Z,9.40
2022-09-30T08:27:03.149Z,9.60
2022-09-30T08:32:18.643Z,9.80
2022-09-30T08:34:48.603Z,9.90
2022-09-30T08:37:35.041Z,9.90
2022-09-30T08:40:02.961Z,9.90
2022-09-30T08:43:02.050Z,9.90
2022-09-30T08:45:50.098Z,10.10
2022-09-30T08:48:42.109Z,10.10
2022-09-30T08:51:24.433Z,10.30
2022-09-30T08:53:53.973Z,10.50
2022-09-30T08:56:28.140Z,10.50
2022-09-30T08:59:05.486Z,10.60
2022-09-30T09:01:36.307Z,10.70
2022-09-30T09:04:06.691Z,10.90
2022-09-30T09:06:43.072Z,11.00
2022-09-30T09:09:35.563Z,11.10
2022-09-30T09:12:09.187Z,11.20
2022-09-30T09:15:13.074Z,11.40
2022-09-30T09:18:23.651Z,11.50
2022-09-30T09:20:52.099Z,11.60
2022-09-30T09:23:20.046Z,11.90
2022-09-30T09:25:50.903Z,12.00
2022-09-30T09:28:31.157Z,12.10
2022-09-30T09:31:00.238Z,12.10
2022-09-30T09:33:35.171Z,12.30
2022-09-30T09:36:22.004Z,12.40
2022-09-30T09:39:27.775Z,12.50
2022-09-30T09:42:06.870Z,12.70
2022-09-30T09:45:09.321Z,12.80
2022-09-30T09:47:37.165Z,12.90
2022-09-30T09:50:16.810Z,13.00
2022-09-30T09:53:18.306Z,13.10
2022-09-30T09:55:55.346Z,13.20
2022-09-30T09:58:23.238Z,13.10
2022-09-30T10:00:52.989Z,13.20
2022-09-30T10:03:23.992Z,13.30
2022-09-30T10:06:10.081Z,13.40
2022-09-30T10:08:42.882Z,13.40
2022-09-30T10:11:25.697Z,13.50
2022-09-30T10:13:58.709Z,13.60
2022-09-30T10:16:37.897Z,13.70
2022-09-30T10:19:21.102Z,13.80
2022-09-30T10:21:57.448Z,13.90
2022-09-30T10:24:30.151Z,14.10
2022-09-30T10:26:58.567Z,14.40
2022-09-30T10:33:16.518Z,14.80
2022-09-30T10:39:44.727Z,15.40
2022-09-30T10:42:39.113Z,15.60
2022-09-30T10:46:06.936Z,16.10
2022-09-30T10:48:56.832Z,16.60
2022-09-30T10:51:50.426Z,17.90
2022-09-30T10:54:58.842Z,20.80
2022-09-30T10:57:41.079Z,23.60
2022-09-30T11:00:25.102Z,25.40
2022-09-30T11:03:07.655Z,27.00
2022-09-30T11:05:40.378Z,27.60
2022-09-30T11:08:41.754Z,27.80
2022-09-30T11:11:27.442Z,28.00
2022-09-30T11:14:20.969Z,29.20
2022-09-30T11:16:55.449Z,29.80
2022-09-30T11:19:38.741Z,29.40
2022-09-30T11:22:47.557Z,30.00
2022-09-30T11:25:43.435Z,30.50
2022-09-30T11:28:43.529Z,30.50
2022-09-30T11:31:31.213Z,31.30
2022-09-30T11:34:19.380Z,31.10
2022-09-30T11:37:09.809Z,31.20
2022-09-30T11:40:09.884Z,31.10
2022-09-30T11:43:25.438Z,30.80
2022-09-30T11:46:31.661Z,31.90
2022-09-30T11:49:08.137Z,32.90
2022-09-30T11:52:01.072Z,31.40
2022-09-30T11:55:11.675Z,30.20
2022-09-30T11:58:08.360Z,28.70
2022-09-30T12:01:01.662Z,29.20
2022-09-30T12:03:36.730Z,30.40
2022-09-30T12:06:24.841Z,30.80
2022-09-30T12:09:00.102Z,31.30
2022-09-30T12:11:40.194Z,31.80
2022-09-30T12:14:16.970Z,31.90
2022-09-30T12:16:47.568Z,32.30
2022-09-30T12:19:42.844Z,33.20
2022-09-30T12:22:28.545Z,31.70
2022-09-30T12:24:56.523Z,29.30
2022-09-30T12:27:48.276Z,30.40
2022-09-30T12:30:20.729Z,31.30
2022-09-30T12:32:48.740Z,32.60
2022-09-30T12:35:43.317Z,32.70
2022-09-30T12:38:43.575Z,33.30
2022-09-30T12:41:53.245Z,33.70
2022-09-30T12:44:59.210Z,32.90
2022-09-30T12:47:57.326Z,32.60
2022-09-30T12:50:34.906Z,33.00
2022-09-30T12:53:31.592Z,33.10
2022-09-30T12:56:11.624Z,32.60
2022-09-30T12:58:48.839Z,32.40
2022-09-30T13:01:18.046Z,33.00
2022-09-30T13:03:48.765Z,33.00
2022-09-30T13:06:20.888Z,33.90
2022-09-30T13:09:11.731Z,33.70
2022-09-30T13:11:44.234Z,32.50
2022-09-30T13:14:33.023Z,33.00
2022-09-30T13:17:03.468Z,34.40
2022-09-30T13:19:40.264Z,35.90
2022-09-30T13:22:45.942Z,34.90
2022-09-30T13:25:17.814Z,33.90
2022-09-30T13:27:47.000Z,33.30
2022-09-30T13:30:14.734Z,33.50
2022-09-30T13:32:47.901Z,34.30
2022-09-30T13:35:48.743Z,34.50
2022-09-30T13:38:17.630Z,35.30
2022-09-30T13:41:02.237Z,35.90
2022-09-30T13:43:53.471Z,35.70
2022-09-30T13:46:23.829Z,34.40
2022-09-30T13:49:13.698Z,33.50
2022-09-30T13:51:42.461Z,33.60
2022-09-30T13:54:32.012Z,34.00
2022-09-30T13:57:02.185Z,32.20
2022-09-30T13:59:41.760Z,30.10
2022-09-30T14:02:18.034Z,28.20
2022-09-30T14:05:07.777Z,27.10
2022-09-30T14:08:13.924Z,26.00
2022-09-30T14:11:13.067Z,24.40
2022-09-30T14:14:08.740Z,22.90
2022-09-30T14:16:39.141Z,21.90
2022-09-30T14:19:15.666Z,21.20
2022-09-30T14:21:46.743Z,21.30
2022-09-30T14:24:17.366Z,22.90
2022-09-30T14:27:06.799Z,24.20
2022-09-30T14:29:52.424Z,24.90
2022-09-30T14:32:33.520Z,25.10
2022-09-30T14:35:06.317Z,24.30
2022-09-30T14:37:45.121Z,23.40
2022-09-30T14:40:19.141Z,22.40
2022-09-30T14:42:50.036Z,21.50
2022-09-30T14:45:22.830Z,20.70
2022-09-30T14:47:53.633Z,20.60
2022-09-30T14:50:26.937Z,20.60
2022-09-30T14:52:58.635Z,20.80
2022-09-30T14:55:34.169Z,22.90
2022-09-30T14:58:36.552Z,25.90
2022-09-30T15:01:12.592Z,28.50
2022-09-30T15:03:45.176Z,30.00
2022-09-30T15:06:31.829Z,31.00
2022-09-30T15:09:38.303Z,32.10
2022-09-30T15:12:16.794Z,32.10
2022-09-30T15:15:00.273Z,32.70
2022-09-30T15:17:37.028Z,33.60
2022-09-30T15:20:28.164Z,33.50
2022-09-30T15:23:01.833Z,33.50
2022-09-30T15:25:31.131Z,32.90
2022-09-30T15:27:58.862Z,33.00
2022-09-30T15:30:34.178Z,33.20
2022-09-30T15:33:06.497Z,33.00
2022-09-30T15:35:34.224Z,32.50
2022-09-30T15:38:15.176Z,31.90
2022-09-30T15:41:08.074Z,30.60
2022-09-30T15:43:43.243Z,28.80
2022-09-30T15:46:27.153Z,26.20
2022-09-30T15:48:59.919Z,24.40
2022-09-30T15:51:40.304Z,22.80
2022-09-30T15:54:29.207Z,21.70
2022-09-30T15:57:00.875Z,20.70
2022-09-30T15:59:58.838Z,20.00
2022-09-30T16:02:28.019Z,19.40
2022-09-30T16:05:01.996Z,18.80
2022-09-30T16:07:34.075Z,18.50
2022-09-30T16:10:01.745Z,18.10
2022-09-30T16:12:35.574Z,17.80
2022-09-30T16:15:15.480Z,17.60
2022-09-30T16:17:49.842Z,17.40
2022-09-30T16:20:17.460Z,17.20
2022-09-30T16:22:45.059Z,17.10
2022-09-30T16:25:28.834Z,16.80
2022-09-30T16:28:12.979Z,16.60
2022-09-30T16:30:50.134Z,16.30
2022-09-30T16:33:18.278Z,16.20
2022-09-30T16:35:51.872Z,15.90
2022-09-30T16:38:20.322Z,15.90
2022-09-30T16:40:47.905Z,15.80
2022-09-30T16:43:16.998Z,15.70
2022-09-30T16:45:44.636Z,15.70
2022-09-30T16:48:15.704Z,15.60
2022-09-30T16:50:43.220Z,15.50
2022-09-30T16:53:10.786Z,15.30
2022-09-30T16:55:38.381Z,15.20
2022-09-30T16:58:06.715Z,15.20
2022-09-30T17:00:34.676Z,15.10
2022-09-30T17:03:02.318Z,15.00
2022-09-30T17:05:30.215Z,14.90
2022-09-30T17:08:00.247Z,14.90
2022-09-30T17:10:30.688Z,14.80
2022-09-30T17:13:01.344Z,14.80
2022-09-30T17:15:31.426Z,14.70
2022-09-30T17:17:59.940Z,14.60
2022-09-30T17:20:27.527Z,14.40
2022-09-30T17:22:55.114Z,14.40
2022-09-30T17:25:22.698Z,14.30
2022-09-30T17:27:50.506Z,14.10
2022-09-30T17:30:19.940Z,14.00
2022-09-30T17:32:48.060Z,13.90
2022-09-30T17:35:15.731Z,13.90
2022-09-30T17:37:46.353Z,13.80
2022-09-30T17:40:33.617Z,13.70
2022-09-30T17:43:07.230Z,13.50
2022-09-30T17:45:35.851Z,13.40
2022-09-30T17:48:04.988Z,13.20
2022-09-30T17:50:32.551Z,13.20
2022-09-30T17:53:03.927Z,13.20
2022-09-30T17:55:33.666Z,13.10
2022-09-30T17:58:04.545Z,13.10
2022-09-30T18:00:33.549Z,13.10
2022-09-30T18:03:01.279Z,13.00
2022-09-30T18:05:29.626Z,13.00
2022-09-30T18:07:57.419Z,13.00
2022-09-30T18:10:25.226Z,12.90
2022-09-30T18:12:54.192Z,12.80
2022-09-30T18:15:26.939Z,12.80
2022-09-30T18:17:54.491Z,12.70
2022-09-30T18:20:24.859Z,12.60
2022-09-30T18:22:56.624Z,12.60
2022-09-30T18:25:24.236Z,12.60
2022-09-30T18:27:59.027Z,12.50
2022-09-30T18:30:27.067Z,12.50
2022-09-30T18:32:54.928Z,12.40
2022-09-30T18:35:24.465Z,12.30
2022-09-30T18:37:53.184Z,12.20
2022-09-30T18:40:23.718Z,12.10
2022-09-30T18:42:58.408Z,12.00
2022-09-30T18:45:27.498Z,12.00
2022-09-30T18:47:57.453Z,11.90
2022-09-30T18:50:26.738Z,11.80
2022-09-30T18:52:55.018Z,11.70
2022-09-30T18:55:30.793Z,11.70
2022-09-30T18:57:58.816Z,11.60
2022-09-30T19:00:31.231Z,11.60
2022-09-30T19:02:58.908Z,11.60
2022-09-30T19:05:26.763Z,11.60
2022-09-30T19:07:54.786Z,11.50
2022-09-30T19:10:24.337Z,11.50
2022-09-30T19:12:52.164Z,11.50
2022-09-30T19:15:20.058Z,11.50
2022-09-30T19:17:50.110Z,11.50
2022-09-30T19:20:17.906Z,11.60
2022-09-30T19:22:46.835Z,11.60
2022-09-30T19:25:15.883Z,11.60
2022-09-30T19:27:44.528Z,11.60
2022-09-30T19:30:13.988Z,11.60
2022-09-30T19:32:41.621Z,11.60
2022-09-30T19:35:11.733Z,11.50
2022-09-30T19:37:56.458Z,11.50
2022-09-30T19:43:04.689Z,11.30
2022-09-30T19:45:32.597Z,11.30
2022-09-30T19:48:00.658Z,11.30
2022-09-30T19:50:28.217Z,11.30
2022-09-30T19:52:57.759Z,11.20
2022-09-30T19:55:26.453Z,11.10
2022-09-30T19:57:54.343Z,11.10
2022-09-30T20:00:21.929Z,10.90
2022-09-30T20:02:50.514Z,10.80
2022-09-30T20:05:18.404Z,10.70
2022-09-30T20:07:46.089Z,10.60
2022-09-30T20:10:14.118Z,10.50
2022-09-30T20:12:42.660Z,10.50
2022-09-30T20:15:29.322Z,10.40
2022-09-30T20:17:56.912Z,10.30
2022-09-30T20:20:38.089Z,10.30
2022-09-30T20:23:05.650Z,10.20
2022-09-30T20:25:34.756Z,10.10
2022-09-30T20:28:04.266Z,10.10
2022-09-30T20:30:33.142Z,10.00
2022-09-30T20:33:01.999Z,10.00
2022-09-30T20:35:29.692Z,9.90
2022-09-30T20:37:57.340Z,9.90
2022-09-30T20:40:24.934Z,9.90
2022-09-30T20:42:52.498Z,9.90
2022-09-30T20:45:20.063Z,9.80
2022-09-30T20:47:47.970Z,9.80
2022-09-30T20:50:34.791Z,9.70
2022-09-30T20:53:05.295Z,9.70
2022-09-30T20:55:40.292Z,9.60
2022-09-30T20:58:09.006Z,9.60
2022-09-30T21:00:39.759Z,9.60
2022-09-30T21:03:08.864Z,9.60
2022-09-30T21:05:36.827Z,9.60
2022-09-30T21:08:07.247Z,9.60
2022-09-30T21:10:37.248Z,9.40
2022-09-30T21:13:10.397Z,9.40
2022-09-30T21:15:39.442Z,9.40
2022-09-30T21:18:08.073Z,9.40
2022-09-30T21:20:36.300Z,9.40
2022-09-30T21:23:04.518Z,9.30
2022-09-30T21:25:32.456Z,9.30
2022-09-30T21:28:00.367Z,9.30
2022-09-30T21:30:28.875Z,9.30
2022-09-30T21:32:56.491Z,9.20
2022-09-30T21:35:24.084Z,9.10
2022-09-30T21:37:51.649Z,9.10
2022-09-30T21:40:19.194Z,9.10
2022-09-30T21:42:46.722Z,9.10
2022-09-30T21:45:14.404Z,9.00
2022-09-30T21:47:41.975Z,9.00
2022-09-30T21:50:09.825Z,9.10
2022-09-30T21:52:39.108Z,9.10
2022-09-30T21:55:07.095Z,9.10
2022-09-30T21:57:34.840Z,9.10
2022-09-30T22:00:04.539Z,9.10
2022-09-30T22:02:32.541Z,9.00
2022-09-30T22:05:00.102Z,8.90
2022-09-30T22:07:27.717Z,8.90
2022-09-30T22:09:55.531Z,8.90
2022-09-30T22:12:23.277Z,8.80
2022-09-30T22:14:50.823Z,8.90
2022-09-30T22:17:18.408Z,9.00
2022-09-30T22:19:45.943Z,9.10
2022-09-30T22:22:13.527Z,9.20
2022-09-30T22:24:41.139Z,9.20
2022-09-30T22:27:09.077Z,9.20
2022-09-30T22:29:36.649Z,9.20
2022-09-30T22:32:04.252Z,9.10
2022-09-30T22:34:51.176Z,9.00
2022-09-30T22:37:37.618Z,8.90
2022-09-30T22:40:05.560Z,8.80
2022-09-30T22:42:35.522Z,8.70
2022-09-30T22:45:03.777Z,8.70
2022-09-30T22:47:31.570Z,8.60
2022-09-30T22:49:59.127Z,8.60
2022-09-30T22:52:26.674Z,8.60
2022-09-30T22:54:54.232Z,8.50
2022-09-30T22:57:21.783Z,8.50
2022-09-30T22:59:49.429Z,8.40
2022-09-30T23:02:17.137Z,8.40
2022-09-30T23:04:44.739Z,8.40
2022-09-30T23:07:12.442Z,8.30
2022-09-30T23:09:39.965Z,8.40
2022-09-30T23:12:07.515Z,8.40
2022-09-30T23:14:35.106Z,8.40
2022-09-30T23:17:02.991Z,8.40
2022-09-30T23:19:30.559Z,8.40
2022-09-30T23:21:58.108Z,8.40
2022-09-30T23:24:25.648Z,8.40
2022-09-30T23:26:53.188Z,8.40
2022-09-30T23:29:21.310Z,8.40
2022-09-30T23:31:49.078Z,8.40
2022-09-30T23:34:17.386Z,8.40
2022-09-30T23:36:44.950Z,8.40
2022-09-30T23:39:19.277Z,8.40
2022-09-30T23:41:48.034Z,8.40
2022-09-30T23:44:19.381Z,8.40
2022-09-30T23:47:06.638Z,8.50
2022-09-30T23:49:35.967Z,8.40
2022-09-30T23:52:12.728Z,8.40
2022-09-30T23:54:42.102Z,8.40
2022-09-30T23:57:10.696Z,8.30
2022-09-30T23:59:40.423Z,8.30
